createdAt,value
2019-03-27T00:00:02.023Z,14.80
2019-03-27T00:02:33.573Z,15.28
2019-03-27T00:05:01.914Z,18.37
2019-03-27T00:07:31.166Z,18.75
2019-03-27T00:10:00.498Z,15.15
2019-03-27T00:12:29.647Z,13.90
2019-03-27T00:15:11.569Z,13.83
2019-03-27T00:17:28.061Z,12.65
2019-03-27T00:19:56.389Z,13.25
2019-03-27T00:22:24.613Z,12.00
2019-03-27T00:24:52.886Z,14.60
2019-03-27T00:27:21.033Z,13.50
2019-03-27T00:29:49.355Z,17.02
2019-03-27T00:32:17.693Z,14.00
2019-03-27T00:34:46.067Z,12.33
2019-03-27T00:37:14.312Z,12.30
2019-03-27T00:39:42.613Z,13.95
2019-03-27T00:42:10.856Z,15.60
2019-03-27T00:44:39.081Z,10.55
2019-03-27T00:47:07.360Z,13.35
2019-03-27T00:49:35.652Z,14.90
2019-03-27T00:52:04.149Z,11.48
2019-03-27T00:54:32.380Z,14.60
2019-03-27T00:57:00.797Z,12.15
2019-03-27T00:59:29.039Z,14.07
2019-03-27T01:01:57.330Z,16.17
2019-03-27T01:04:25.556Z,13.40
2019-03-27T01:06:53.853Z,15.13
2019-03-27T01:09:22.103Z,16.60
2019-03-27T01:11:50.521Z,16.25
2019-03-27T01:14:18.746Z,13.32
2019-03-27T01:16:47.017Z,12.00
2019-03-27T01:19:15.232Z,16.82
2019-03-27T01:21:43.627Z,24.75
2019-03-27T01:24:11.825Z,17.50
2019-03-27T01:26:40.138Z,13.70
2019-03-27T01:29:08.345Z,13.10
2019-03-27T01:31:36.672Z,15.50
2019-03-27T01:34:04.958Z,13.48
2019-03-27T01:36:33.279Z,16.60
2019-03-27T01:39:01.489Z,16.32
2019-03-27T01:41:31.315Z,14.78
2019-03-27T01:43:59.512Z,17.20
2019-03-27T01:46:27.710Z,13.85
2019-03-27T01:48:55.997Z,17.00
2019-03-27T01:51:24.203Z,13.62
2019-03-27T01:53:52.740Z,16.87
2019-03-27T01:56:20.954Z,15.80
2019-03-27T01:58:49.265Z,15.68
2019-03-27T02:01:17.517Z,14.93
2019-03-27T02:03:45.795Z,15.08
2019-03-27T02:06:14.034Z,17.62
2019-03-27T02:08:42.330Z,15.03
2019-03-27T02:11:10.546Z,15.65
2019-03-27T02:13:38.875Z,15.60
2019-03-27T02:16:07.580Z,15.48
2019-03-27T02:18:36.116Z,15.58
2019-03-27T02:21:04.432Z,13.38
2019-03-27T02:23:32.614Z,16.75
2019-03-27T02:26:00.814Z,17.05
2019-03-27T02:28:29.129Z,16.97
2019-03-27T02:30:57.349Z,15.18
2019-03-27T02:33:25.621Z,16.10
2019-03-27T02:35:53.860Z,17.73
2019-03-27T02:38:22.149Z,14.33
2019-03-27T02:40:50.361Z,17.70
2019-03-27T02:43:18.589Z,16.02
2019-03-27T02:45:46.901Z,18.45
2019-03-27T02:48:15.216Z,16.55
2019-03-27T02:50:43.517Z,16.17
2019-03-27T02:53:11.806Z,15.30
2019-03-27T02:55:40.094Z,16.75
2019-03-27T02:58:08.324Z,17.87
2019-03-27T03:00:36.614Z,22.30
2019-03-27T03:03:04.856Z,16.48
2019-03-27T03:05:33.122Z,21.97
2019-03-27T03:08:01.356Z,14.18
2019-03-27T03:10:29.551Z,19.05
2019-03-27T03:12:57.776Z,22.65
2019-03-27T03:15:26.154Z,22.85
2019-03-27T03:17:54.489Z,24.67
2019-03-27T03:20:22.844Z,21.85
2019-03-27T03:22:51.058Z,22.60
2019-03-27T03:25:19.294Z,16.27
2019-03-27T03:27:47.532Z,14.73
2019-03-27T03:30:16.010Z,17.77
2019-03-27T03:32:44.374Z,17.07
2019-03-27T03:35:12.927Z,20.02
2019-03-27T03:37:41.486Z,20.45
2019-03-27T03:40:11.028Z,25.05
2019-03-27T03:42:40.953Z,19.65
2019-03-27T03:45:10.967Z,19.95
2019-03-27T03:47:39.889Z,16.55
2019-03-27T03:50:14.897Z,16.85
2019-03-27T03:52:45.940Z,19.77
2019-03-27T03:55:14.714Z,15.53
2019-03-27T03:57:44.636Z,20.35
2019-03-27T04:00:13.568Z,22.15
2019-03-27T04:02:44.130Z,18.52
2019-03-27T04:05:17.078Z,21.23
2019-03-27T04:07:46.980Z,20.43
2019-03-27T04:10:15.189Z,23.45
2019-03-27T04:12:43.490Z,20.48
2019-03-27T04:15:11.900Z,21.42
2019-03-27T04:17:40.349Z,18.60
2019-03-27T04:20:08.666Z,16.23
2019-03-27T04:22:38.963Z,19.52
2019-03-27T04:25:07.549Z,22.00
2019-03-27T04:27:36.129Z,24.00
2019-03-27T04:30:05.665Z,18.37
2019-03-27T04:32:36.881Z,23.83
2019-03-27T04:35:05.334Z,23.47
2019-03-27T04:37:33.624Z,18.60
2019-03-27T04:40:01.866Z,24.33
2019-03-27T04:42:31.805Z,21.85
2019-03-27T04:45:00.190Z,20.45
2019-03-27T04:47:32.515Z,19.20
2019-03-27T04:49:58.906Z,20.70
2019-03-27T04:52:27.193Z,19.45
2019-03-27T04:54:55.511Z,21.57
2019-03-27T04:57:23.732Z,20.55
2019-03-27T04:59:52.121Z,20.25
2019-03-27T05:02:20.346Z,22.37
2019-03-27T05:04:48.898Z,22.13
2019-03-27T05:07:17.121Z,19.60
2019-03-27T05:09:45.433Z,21.50
2019-03-27T05:12:13.652Z,24.82
2019-03-27T05:14:41.824Z,21.90
2019-03-27T05:17:10.059Z,27.58
2019-03-27T05:19:38.363Z,31.85
2019-03-27T05:22:06.702Z,28.17
2019-03-27T05:24:34.989Z,26.75
2019-03-27T05:27:04.305Z,28.60
2019-03-27T05:29:33.652Z,24.65
2019-03-27T05:32:01.891Z,26.37
2019-03-27T05:34:30.315Z,32.13
2019-03-27T05:36:58.544Z,26.52
2019-03-27T05:39:26.950Z,24.80
2019-03-27T05:41:55.167Z,30.02
2019-03-27T05:44:23.377Z,28.40
2019-03-27T05:46:51.693Z,26.65
2019-03-27T05:49:19.944Z,31.90
2019-03-27T05:51:48.187Z,30.15
2019-03-27T05:54:16.499Z,27.98
2019-03-27T05:56:44.789Z,30.68
2019-03-27T05:59:13.009Z,30.75
2019-03-27T06:01:41.346Z,28.57
2019-03-27T06:04:09.594Z,28.80
2019-03-27T06:06:37.799Z,35.20
2019-03-27T06:09:06.512Z,29.20
2019-03-27T06:11:34.787Z,32.58
2019-03-27T06:14:03.059Z,33.30
2019-03-27T06:16:31.410Z,30.08
2019-03-27T06:18:59.622Z,31.33
2019-03-27T06:21:27.929Z,39.50
2019-03-27T06:23:56.171Z,24.70
2019-03-27T06:26:24.493Z,30.97
2019-03-27T06:28:52.703Z,29.15
2019-03-27T06:31:21.010Z,32.35
2019-03-27T06:33:49.225Z,30.15
2019-03-27T06:36:17.560Z,31.68
2019-03-27T06:39:05.281Z,34.13
2019-03-27T06:41:33.626Z,27.98
2019-03-27T06:44:01.763Z,34.15
2019-03-27T06:46:30.098Z,31.80
2019-03-27T06:49:17.591Z,34.03
2019-03-27T06:51:45.874Z,27.62
2019-03-27T06:54:14.257Z,32.58
2019-03-27T06:56:42.487Z,29.65
2019-03-27T06:59:10.783Z,39.73
2019-03-27T07:01:39.054Z,27.73
2019-03-27T07:04:10.667Z,32.70
2019-03-27T07:06:37.466Z,32.30
2019-03-27T07:09:07.867Z,33.78
2019-03-27T07:11:36.101Z,29.27
2019-03-27T07:14:04.531Z,34.73
2019-03-27T07:16:32.759Z,33.92
2019-03-27T07:19:01.067Z,37.00
2019-03-27T07:21:29.330Z,28.30
2019-03-27T07:23:57.610Z,31.70
2019-03-27T07:26:25.858Z,31.07
2019-03-27T07:28:54.126Z,32.25
2019-03-27T07:31:22.379Z,35.17
2019-03-27T07:34:09.880Z,34.63
2019-03-27T07:36:37.990Z,32.65
2019-03-27T07:39:11.135Z,31.75
2019-03-27T07:41:36.644Z,36.08
2019-03-27T07:44:04.883Z,28.00
2019-03-27T07:46:33.207Z,27.15
2019-03-27T07:49:01.342Z,34.78
2019-03-27T07:51:29.579Z,30.68
2019-03-27T07:53:57.886Z,33.73
2019-03-27T07:56:26.170Z,31.97
2019-03-27T07:58:54.502Z,28.90
2019-03-27T08:01:22.840Z,28.12
2019-03-27T08:03:51.071Z,32.93
2019-03-27T08:06:19.403Z,28.83
2019-03-27T08:08:47.626Z,32.00
2019-03-27T08:11:15.957Z,30.27
2019-03-27T08:13:44.256Z,28.90
2019-03-27T08:16:12.578Z,31.55
2019-03-27T08:18:40.843Z,32.70
2019-03-27T08:21:09.144Z,29.63
2019-03-27T08:23:37.500Z,29.48
2019-03-27T08:26:05.813Z,28.47
2019-03-27T08:28:34.041Z,29.05
2019-03-27T08:31:02.345Z,37.95
2019-03-27T08:33:30.589Z,31.45
2019-03-27T08:35:58.926Z,32.58
2019-03-27T08:38:27.146Z,24.32
2019-03-27T08:40:55.467Z,28.50
2019-03-27T08:43:25.576Z,25.00
2019-03-27T08:45:53.801Z,27.48
2019-03-27T08:48:22.030Z,30.35
2019-03-27T08:50:50.252Z,28.50
2019-03-27T08:53:18.735Z,30.52
2019-03-27T08:55:47.045Z,26.75
2019-03-27T08:58:15.386Z,24.52
2019-03-27T09:00:51.347Z,25.40
2019-03-27T09:03:20.328Z,27.13
2019-03-27T09:05:48.777Z,29.98
2019-03-27T09:08:17.074Z,25.08
2019-03-27T09:10:45.621Z,28.40
2019-03-27T09:13:32.704Z,23.77
2019-03-27T09:16:11.775Z,26.20
2019-03-27T09:18:40.061Z,22.02
2019-03-27T09:21:08.402Z,26.82
2019-03-27T09:23:36.794Z,22.77
2019-03-27T09:26:05.005Z,29.07
2019-03-27T09:28:36.135Z,28.47
2019-03-27T09:31:04.406Z,23.02
2019-03-27T09:33:32.804Z,21.95
2019-03-27T09:36:01.439Z,24.87
2019-03-27T09:38:30.296Z,22.87
2019-03-27T09:40:58.543Z,22.45
2019-03-27T09:43:28.834Z,23.70
2019-03-27T09:45:56.849Z,21.68
2019-03-27T09:48:25.274Z,21.52
2019-03-27T09:50:53.588Z,22.40
2019-03-27T09:53:22.057Z,24.43
2019-03-27T09:55:50.281Z,26.48
2019-03-27T09:58:18.634Z,22.13
2019-03-27T10:01:01.060Z,22.67
2019-03-27T10:03:29.974Z,20.82
2019-03-27T10:05:58.273Z,21.40
2019-03-27T10:08:29.137Z,22.65
2019-03-27T10:10:57.673Z,25.35
2019-03-27T10:13:27.158Z,20.82
2019-03-27T10:15:55.471Z,18.32
2019-03-27T10:18:23.793Z,16.10
2019-03-27T10:20:52.190Z,16.55
2019-03-27T10:23:20.512Z,14.07
2019-03-27T10:25:50.732Z,13.22
2019-03-27T10:28:19.075Z,14.18
2019-03-27T10:30:50.666Z,17.02
2019-03-27T10:33:19.052Z,17.20
2019-03-27T10:35:47.381Z,11.75
2019-03-27T10:38:20.853Z,12.88
2019-03-27T10:40:52.310Z,11.57
2019-03-27T10:43:22.990Z,12.98
2019-03-27T10:45:59.356Z,13.72
2019-03-27T10:48:30.363Z,10.55
2019-03-27T10:50:58.847Z,10.63
2019-03-27T10:53:27.473Z,11.85
2019-03-27T10:55:55.737Z,9.40
2019-03-27T10:58:24.005Z,9.30
2019-03-27T11:00:52.293Z,10.95
2019-03-27T11:03:23.490Z,11.03
2019-03-27T11:05:54.812Z,12.25
2019-03-27T11:08:22.942Z,14.45
2019-03-27T11:10:51.491Z,12.13
2019-03-27T11:13:22.168Z,12.73
2019-03-27T11:15:50.681Z,13.75
2019-03-27T11:18:19.039Z,10.48
2019-03-27T11:20:47.261Z,10.55
2019-03-27T11:23:15.518Z,12.43
2019-03-27T11:25:43.906Z,11.33
2019-03-27T11:28:12.191Z,12.95
2019-03-27T11:30:41.141Z,12.20
2019-03-27T11:33:09.885Z,11.70
2019-03-27T11:35:41.301Z,12.68
2019-03-27T11:38:09.780Z,14.53
2019-03-27T11:40:38.046Z,10.75
2019-03-27T11:43:06.341Z,9.20
2019-03-27T11:45:34.894Z,8.70
2019-03-27T11:48:04.054Z,10.23
2019-03-27T11:50:44.237Z,14.83
2019-03-27T11:53:03.248Z,10.00
2019-03-27T11:55:31.564Z,12.10
2019-03-27T11:57:59.908Z,8.90
2019-03-27T12:00:31.900Z,10.68
2019-03-27T12:03:00.199Z,11.40
2019-03-27T12:05:28.933Z,10.93
2019-03-27T12:08:00.227Z,11.90
2019-03-27T12:10:30.997Z,10.95
2019-03-27T12:12:59.288Z,12.40
2019-03-27T12:15:40.959Z,11.20
2019-03-27T12:18:17.117Z,10.53
2019-03-27T12:20:58.317Z,12.35
2019-03-27T12:23:20.089Z,10.70
2019-03-27T12:25:48.308Z,9.25
2019-03-27T12:28:16.621Z,8.43
2019-03-27T12:30:47.187Z,12.75
2019-03-27T12:33:15.758Z,9.30
2019-03-27T12:35:43.978Z,10.05
2019-03-27T12:38:14.198Z,8.08
2019-03-27T12:40:42.425Z,7.12
2019-03-27T12:43:10.777Z,8.38
2019-03-27T12:45:41.478Z,9.95
2019-03-27T12:48:12.575Z,8.13
2019-03-27T12:50:44.505Z,10.85
2019-03-27T12:53:14.196Z,7.53
2019-03-27T12:55:42.568Z,9.53
2019-03-27T12:58:11.875Z,8.45
2019-03-27T13:00:40.462Z,6.15
2019-03-27T13:03:09.987Z,7.28
2019-03-27T13:05:38.526Z,6.55
2019-03-27T13:08:13.898Z,6.62
2019-03-27T13:10:39.758Z,8.60
2019-03-27T13:13:07.994Z,9.50
2019-03-27T13:15:41.010Z,7.25
2019-03-27T13:18:12.619Z,10.82
2019-03-27T13:20:40.921Z,10.85
2019-03-27T13:23:11.662Z,6.42
2019-03-27T13:25:42.980Z,7.10
2019-03-27T13:28:16.658Z,10.43
2019-03-27T13:30:45.022Z,7.20
2019-03-27T13:33:13.257Z,7.22
2019-03-27T13:35:41.593Z,6.87
2019-03-27T13:38:09.834Z,7.45
2019-03-27T13:40:38.104Z,9.60
2019-03-27T13:43:07.838Z,9.63
2019-03-27T13:45:36.062Z,13.38
2019-03-27T13:48:04.747Z,8.93
2019-03-27T13:50:33.191Z,8.60
2019-03-27T13:53:01.470Z,7.75
2019-03-27T13:55:30.062Z,7.83
2019-03-27T13:58:01.525Z,8.38
2019-03-27T14:00:37.117Z,8.35
2019-03-27T14:03:10.054Z,13.05
2019-03-27T14:05:38.422Z,8.43
2019-03-27T14:08:06.896Z,7.40
2019-03-27T14:10:35.410Z,7.78
2019-03-27T14:13:03.930Z,8.90
2019-03-27T14:15:32.386Z,8.28
2019-03-27T14:18:04.229Z,7.62
2019-03-27T14:20:35.302Z,6.72
2019-03-27T14:23:06.818Z,6.50
2019-03-27T14:25:35.146Z,14.00
2019-03-27T14:28:05.618Z,9.38
2019-03-27T14:30:51.160Z,8.18
2019-03-27T14:33:21.253Z,6.58
2019-03-27T14:35:49.606Z,7.55
2019-03-27T14:38:18.413Z,10.28
2019-03-27T14:40:46.824Z,7.10
2019-03-27T14:43:15.465Z,6.15
2019-03-27T14:45:43.754Z,5.58
2019-03-27T14:48:12.135Z,5.30
2019-03-27T14:50:40.490Z,6.85
2019-03-27T14:53:08.817Z,5.08
2019-03-27T14:55:37.354Z,6.10
2019-03-27T14:58:05.641Z,5.37
2019-03-27T15:00:34.029Z,5.72
2019-03-27T15:03:02.366Z,6.78
2019-03-27T15:05:30.648Z,9.05
2019-03-27T15:07:59.027Z,6.25
2019-03-27T15:10:27.404Z,6.90
2019-03-27T15:12:55.742Z,5.87
2019-03-27T15:15:24.185Z,5.08
2019-03-27T15:17:52.413Z,5.67
2019-03-27T15:20:20.751Z,5.12
2019-03-27T15:22:49.027Z,5.10
2019-03-27T15:25:17.493Z,6.72
2019-03-27T15:27:45.815Z,7.33
2019-03-27T15:30:14.698Z,5.50
2019-03-27T15:32:43.221Z,5.95
2019-03-27T15:35:11.768Z,5.28
2019-03-27T15:37:40.334Z,4.95
2019-03-27T15:40:09.130Z,5.45
2019-03-27T15:42:39.783Z,7.10
2019-03-27T15:45:09.176Z,6.97
2019-03-27T15:47:38.057Z,7.72
2019-03-27T15:50:06.545Z,4.97
2019-03-27T15:52:36.924Z,4.28
2019-03-27T15:55:08.577Z,4.58
2019-03-27T15:57:37.150Z,6.42
2019-03-27T16:00:06.470Z,5.20
2019-03-27T16:02:35.384Z,3.83
2019-03-27T16:05:04.016Z,5.30
2019-03-27T16:07:32.597Z,5.65
2019-03-27T16:10:00.856Z,7.17
2019-03-27T16:12:30.784Z,4.80
2019-03-27T16:14:59.068Z,6.62
2019-03-27T16:17:27.483Z,5.37
2019-03-27T16:19:55.714Z,11.30
2019-03-27T16:22:24.194Z,7.03
2019-03-27T16:24:52.636Z,9.13
2019-03-27T16:27:20.792Z,5.72
2019-03-27T16:29:49.023Z,6.62
2019-03-27T16:32:17.380Z,9.78
2019-03-27T16:34:45.637Z,5.47
2019-03-27T16:37:13.968Z,7.58
2019-03-27T16:39:42.226Z,8.45
2019-03-27T16:42:10.579Z,4.58
2019-03-27T16:44:38.866Z,5.08
2019-03-27T16:47:07.199Z,4.03
2019-03-27T16:49:35.502Z,4.90
2019-03-27T16:52:04.103Z,7.30
2019-03-27T16:54:32.539Z,4.83
2019-03-27T16:57:00.817Z,4.20
2019-03-27T16:59:29.157Z,3.77
2019-03-27T17:01:59.259Z,4.35
2019-03-27T17:04:27.673Z,3.52
2019-03-27T17:06:55.933Z,4.40
2019-03-27T17:09:24.272Z,6.47
2019-03-27T17:11:52.463Z,3.98
2019-03-27T17:14:20.831Z,4.12
2019-03-27T17:16:49.141Z,4.00
2019-03-27T17:19:17.698Z,6.87
2019-03-27T17:21:45.939Z,4.20
2019-03-27T17:24:14.364Z,5.37
2019-03-27T17:26:42.606Z,6.37
2019-03-27T17:29:10.958Z,3.47
2019-03-27T17:31:39.102Z,3.17
2019-03-27T17:34:07.418Z,10.38
2019-03-27T17:36:35.823Z,3.75
2019-03-27T17:39:07.026Z,4.37
2019-03-27T17:41:35.612Z,3.80
2019-03-27T17:44:04.174Z,4.87
2019-03-27T17:46:32.629Z,8.35
2019-03-27T17:49:00.949Z,3.95
2019-03-27T17:51:29.151Z,5.05
2019-03-27T17:53:57.626Z,5.22
2019-03-27T17:56:26.527Z,5.53
2019-03-27T17:58:54.808Z,6.12
2019-03-27T18:01:23.264Z,4.83
2019-03-27T18:03:51.530Z,4.87
2019-03-27T18:06:19.895Z,4.83
2019-03-27T18:08:48.200Z,5.45
2019-03-27T18:11:16.549Z,9.33
2019-03-27T18:13:45.011Z,6.80
2019-03-27T18:16:16.756Z,6.45
2019-03-27T18:18:43.747Z,5.25
2019-03-27T18:21:12.300Z,7.25
2019-03-27T18:23:46.378Z,5.20
2019-03-27T18:26:11.158Z,5.25
2019-03-27T18:28:39.514Z,4.90
2019-03-27T18:31:08.019Z,6.95
2019-03-27T18:33:36.540Z,4.90
2019-03-27T18:36:04.899Z,5.50
2019-03-27T18:38:33.270Z,5.83
2019-03-27T18:41:01.670Z,6.53
2019-03-27T18:43:29.934Z,5.08
2019-03-27T18:45:58.329Z,6.15
2019-03-27T18:48:26.674Z,9.95
2019-03-27T18:50:54.949Z,9.33
2019-03-27T18:53:23.475Z,5.22
2019-03-27T18:55:51.988Z,5.50
2019-03-27T18:58:20.384Z,6.95
2019-03-27T19:00:48.814Z,5.70
2019-03-27T19:03:17.333Z,7.92
2019-03-27T19:05:45.651Z,7.22
2019-03-27T19:08:13.968Z,7.70
2019-03-27T19:10:42.339Z,5.20
2019-03-27T19:13:10.777Z,6.08
2019-03-27T19:15:39.060Z,5.42
2019-03-27T19:18:07.470Z,6.12
2019-03-27T19:20:35.838Z,5.95
2019-03-27T19:23:04.210Z,5.28
2019-03-27T19:25:32.659Z,6.90
2019-03-27T19:28:01.381Z,5.20
2019-03-27T19:30:29.773Z,8.05
2019-03-27T19:32:58.265Z,5.70
2019-03-27T19:35:26.872Z,6.72
2019-03-27T19:37:55.279Z,5.70
2019-03-27T19:40:23.896Z,6.20
2019-03-27T19:42:52.416Z,7.05
2019-03-27T19:45:20.892Z,10.32
2019-03-27T19:47:49.276Z,5.85
2019-03-27T19:50:17.659Z,6.62
2019-03-27T19:52:45.922Z,8.80
2019-03-27T19:55:14.350Z,7.85
2019-03-27T19:57:42.569Z,5.60
2019-03-27T20:00:11.762Z,6.20
2019-03-27T20:02:40.760Z,9.00
2019-03-27T20:05:09.303Z,6.95
2019-03-27T20:07:37.735Z,9.28
2019-03-27T20:10:06.470Z,8.25
2019-03-27T20:12:36.187Z,9.35
2019-03-27T20:15:11.711Z,7.53
2019-03-27T20:17:36.116Z,7.83
2019-03-27T20:20:07.351Z,7.12
2019-03-27T20:22:36.263Z,7.53
2019-03-27T20:25:05.682Z,8.83
2019-03-27T20:27:35.174Z,9.35
2019-03-27T20:30:04.849Z,6.95
2019-03-27T20:32:34.839Z,7.03
2019-03-27T20:35:03.463Z,7.70
2019-03-27T20:37:32.766Z,7.00
2019-03-27T20:40:05.516Z,8.20
2019-03-27T20:42:34.831Z,6.67
2019-03-27T20:45:03.523Z,7.87
2019-03-27T20:47:33.313Z,7.28
2019-03-27T20:50:01.646Z,7.65
2019-03-27T20:52:31.620Z,8.25
2019-03-27T20:55:00.317Z,6.45
2019-03-27T20:57:30.203Z,7.70
2019-03-27T20:59:58.480Z,6.35
2019-03-27T21:02:26.978Z,7.50
2019-03-27T21:04:55.268Z,7.03
2019-03-27T21:07:24.690Z,6.80
2019-03-27T21:09:53.399Z,10.10
2019-03-27T21:12:21.941Z,11.95
2019-03-27T21:14:50.209Z,9.08
2019-03-27T21:17:18.570Z,7.03
2019-03-27T21:19:46.854Z,12.05
2019-03-27T21:22:15.165Z,9.18
2019-03-27T21:24:43.434Z,9.23
2019-03-27T21:27:11.747Z,11.12
2019-03-27T21:29:40.075Z,7.47
2019-03-27T21:32:08.215Z,7.00
2019-03-27T21:34:36.601Z,9.08
2019-03-27T21:37:04.970Z,6.97
2019-03-27T21:39:33.336Z,7.92
2019-03-27T21:42:01.572Z,6.45
2019-03-27T21:44:29.934Z,8.70
2019-03-27T21:46:58.304Z,8.75
2019-03-27T21:49:26.662Z,6.87
2019-03-27T21:51:54.922Z,6.90
2019-03-27T21:54:23.321Z,7.90
2019-03-27T21:56:51.598Z,8.90
2019-03-27T21:59:19.980Z,7.08
2019-03-27T22:01:48.277Z,7.40
2019-03-27T22:04:16.767Z,7.50
2019-03-27T22:06:44.951Z,6.65
2019-03-27T22:09:13.284Z,8.38
2019-03-27T22:11:41.574Z,7.62
2019-03-27T22:14:10.000Z,9.95
2019-03-27T22:16:38.370Z,7.78
2019-03-27T22:19:06.776Z,7.45
2019-03-27T22:21:35.006Z,7.70
2019-03-27T22:24:03.253Z,8.83
2019-03-27T22:26:31.578Z,8.50
2019-03-27T22:28:59.887Z,7.60
2019-03-27T22:31:28.734Z,9.05
2019-03-27T22:33:57.071Z,9.20
2019-03-27T22:36:25.369Z,7.15
2019-03-27T22:38:53.508Z,8.40
2019-03-27T22:41:21.832Z,8.78
2019-03-27T22:43:52.904Z,9.10
2019-03-27T22:46:21.292Z,7.87
2019-03-27T22:48:49.547Z,8.48
2019-03-27T22:51:17.817Z,9.55
2019-03-27T22:53:46.068Z,9.50
2019-03-27T22:56:14.490Z,10.08
2019-03-27T22:58:42.801Z,8.13
2019-03-27T23:01:11.179Z,11.40
2019-03-27T23:03:40.038Z,9.25
2019-03-27T23:06:08.351Z,8.68
2019-03-27T23:08:36.716Z,10.28
2019-03-27T23:11:05.047Z,10.05
2019-03-27T23:13:33.393Z,10.32
2019-03-27T23:16:01.726Z,8.93
2019-03-27T23:18:30.199Z,12.00
2019-03-27T23:20:58.403Z,9.45
2019-03-27T23:23:26.637Z,8.35
2019-03-27T23:26:02.928Z,11.25
2019-03-27T23:28:25.089Z,10.58
2019-03-27T23:30:53.342Z,9.48
2019-03-27T23:33:22.698Z,7.67
2019-03-27T23:35:50.920Z,12.35
2019-03-27T23:38:19.361Z,9.45
2019-03-27T23:40:47.607Z,7.95
2019-03-27T23:43:15.886Z,8.28
2019-03-27T23:45:44.140Z,10.93
2019-03-27T23:48:12.449Z,8.83
2019-03-27T23:50:40.689Z,8.35
2019-03-27T23:53:09.083Z,11.48
2019-03-27T23:55:37.269Z,10.35
2019-03-27T23:58:05.563Z,11.40
